sensor_id;sensor_type;location;lat;lon;timestamp;pressure;altitude;pressure_sealevel;temperature;humidity
23417;BME280;11881;42.432;25.632;2024-01-30T00:02:12;101374.88;;;2.63;84.68
23417;BME280;11881;42.432;25.632;2024-01-30T00:04:37;101381.97;;;2.60;85.77
23417;BME280;11881;42.432;25.632;2024-01-30T00:07:03;101375.06;;;2.56;87.67
23417;BME280;11881;42.432;25.632;2024-01-30T00:09:28;101378.19;;;2.34;89.07
23417;BME280;11881;42.432;25.632;2024-01-30T00:11:54;101376.31;;;2.39;88.85
23417;BME280;11881;42.432;25.632;2024-01-30T00:14:19;101371.69;;;2.49;90.62
23417;BME280;11881;42.432;25.632;2024-01-30T00:16:45;101377.84;;;2.50;89.55
23417;BME280;11881;42.432;25.632;2024-01-30T00:19:10;101380.00;;;2.31;90.41
23417;BME280;11881;42.432;25.632;2024-01-30T00:21:36;101386.00;;;2.37;92.05
23417;BME280;11881;42.432;25.632;2024-01-30T00:24:02;101373.59;;;2.43;91.08
23417;BME280;11881;42.432;25.632;2024-01-30T00:26:27;101382.66;;;2.31;93.10
23417;BME280;11881;42.432;25.632;2024-01-30T00:28:53;101386.09;;;2.34;92.04
23417;BME280;11881;42.432;25.632;2024-01-30T00:31:18;101378.34;;;2.28;93.77
23417;BME280;11881;42.432;25.632;2024-01-30T00:33:43;101380.88;;;2.31;94.05
23417;BME280;11881;42.432;25.632;2024-01-30T00:36:09;101384.19;;;2.41;92.67
23417;BME280;11881;42.432;25.632;2024-01-30T00:38:35;101382.38;;;2.43;93.72
23417;BME280;11881;42.432;25.632;2024-01-30T00:41:01;101381.66;;;2.36;93.46
23417;BME280;11881;42.432;25.632;2024-01-30T00:43:27;101385.28;;;2.32;93.94
23417;BME280;11881;42.432;25.632;2024-01-30T00:45:53;101376.44;;;2.35;94.79
23417;BME280;11881;42.432;25.632;2024-01-30T00:48:19;101385.13;;;2.38;93.89
23417;BME280;11881;42.432;25.632;2024-01-30T00:50:45;101382.38;;;2.43;94.29
23417;BME280;11881;42.432;25.632;2024-01-30T00:53:10;101372.38;;;2.20;94.87
23417;BME280;11881;42.432;25.632;2024-01-30T00:55:36;101373.31;;;2.18;95.36
23417;BME280;11881;42.432;25.632;2024-01-30T00:58:02;101370.81;;;2.11;95.93
23417;BME280;11881;42.432;25.632;2024-01-30T01:00:28;101377.81;;;2.12;96.57
23417;BME280;11881;42.432;25.632;2024-01-30T01:02:55;101375.84;;;2.22;95.09
23417;BME280;11881;42.432;25.632;2024-01-30T01:05:21;101362.41;;;1.96;97.04
23417;BME280;11881;42.432;25.632;2024-01-30T01:07:46;101379.28;;;2.24;96.97
23417;BME280;11881;42.432;25.632;2024-01-30T01:10:13;101376.88;;;2.15;96.84
23417;BME280;11881;42.432;25.632;2024-01-30T01:12:39;101363.13;;;2.04;97.90
23417;BME280;11881;42.432;25.632;2024-01-30T01:15:05;101361.25;;;2.07;97.32
23417;BME280;11881;42.432;25.632;2024-01-30T01:17:34;101362.84;;;2.16;96.18
23417;BME280;11881;42.432;25.632;2024-01-30T01:20:00;101345.38;;;2.12;97.20
23417;BME280;11881;42.432;25.632;2024-01-30T01:22:25;101343.03;;;2.00;97.21
23417;BME280;11881;42.432;25.632;2024-01-30T01:24:51;101353.38;;;2.09;96.88
23417;BME280;11881;42.432;25.632;2024-01-30T01:27:16;101349.94;;;2.05;96.93
23417;BME280;11881;42.432;25.632;2024-01-30T01:29:42;101337.88;;;1.95;97.33
23417;BME280;11881;42.432;25.632;2024-01-30T01:32:08;101334.06;;;2.10;96.16
23417;BME280;11881;42.432;25.632;2024-01-30T01:34:33;101334.47;;;2.29;98.17
23417;BME280;11881;42.432;25.632;2024-01-30T01:36:59;101329.63;;;2.12;96.12
23417;BME280;11881;42.432;25.632;2024-01-30T01:39:25;101339.31;;;2.10;96.69
23417;BME280;11881;42.432;25.632;2024-01-30T01:41:51;101345.38;;;2.12;98.17
23417;BME280;11881;42.432;25.632;2024-01-30T01:44:20;101345.38;;;2.12;96.74
23417;BME280;11881;42.432;25.632;2024-01-30T01:46:45;101339.84;;;2.24;96.36
23417;BME280;11881;42.432;25.632;2024-01-30T01:49:11;101354.38;;;2.02;97.00
23417;BME280;11881;42.432;25.632;2024-01-30T01:51:38;101350.56;;;2.17;96.90
23417;BME280;11881;42.432;25.632;2024-01-30T01:54:06;101347.78;;;2.23;97.12
23417;BME280;11881;42.432;25.632;2024-01-30T01:56:33;101333.00;;;2.17;95.66
23417;BME280;11881;42.432;25.632;2024-01-30T01:59:06;101348.66;;;2.23;95.14
23417;BME280;11881;42.432;25.632;2024-01-30T02:01:38;101336.41;;;2.22;96.00
23417;BME280;11881;42.432;25.632;2024-01-30T02:04:04;101339.84;;;2.24;95.32
23417;BME280;11881;42.432;25.632;2024-01-30T02:06:30;101323.41;;;2.16;95.87
23417;BME280;11881;42.432;25.632;2024-01-30T02:08:56;101325.91;;;2.21;96.23
23417;BME280;11881;42.432;25.632;2024-01-30T02:11:22;101331.91;;;2.26;96.82
23417;BME280;11881;42.432;25.632;2024-01-30T02:13:49;101326.03;;;2.16;97.74
23417;BME280;11881;42.432;25.632;2024-01-30T02:16:15;101326.94;;;2.15;97.87
23417;BME280;11881;42.432;25.632;2024-01-30T02:18:42;101319.13;;;2.10;98.68
23417;BME280;11881;42.432;25.632;2024-01-30T02:21:10;101323.53;;;2.10;100.00
23417;BME280;11881;42.432;25.632;2024-01-30T02:23:36;101318.28;;;2.10;100.00
23417;BME280;11881;42.432;25.632;2024-01-30T02:26:03;101309.47;;;2.11;100.00
23417;BME280;11881;42.432;25.632;2024-01-30T02:28:28;101327.09;;;2.07;100.00
23417;BME280;11881;42.432;25.632;2024-01-30T02:30:54;101323.44;;;2.13;100.00
23417;BME280;11881;42.432;25.632;2024-01-30T02:33:19;101322.69;;;2.08;100.00
23417;BME280;11881;42.432;25.632;2024-01-30T02:35:47;101333.19;;;2.09;100.00
23417;BME280;11881;42.432;25.632;2024-01-30T02:38:12;101345.38;;;2.12;100.00
23417;BME280;11881;42.432;25.632;2024-01-30T02:40:38;101341.72;;;2.19;100.00
23417;BME280;11881;42.432;25.632;2024-01-30T02:43:04;101359.16;;;2.23;100.00
23417;BME280;11881;42.432;25.632;2024-01-30T02:45:29;101353.72;;;2.31;100.00
23417;BME280;11881;42.432;25.632;2024-01-30T02:47:55;101353.91;;;2.23;100.00
23417;BME280;11881;42.432;25.632;2024-01-30T02:50:20;101344.34;;;2.21;100.00
23417;BME280;11881;42.432;25.632;2024-01-30T02:52:46;101352.09;;;2.25;100.00
23417;BME280;11881;42.432;25.632;2024-01-30T02:55:11;101349.59;;;2.19;100.00
23417;BME280;11881;42.432;25.632;2024-01-30T02:57:38;101350.50;;;2.18;100.00
23417;BME280;11881;42.432;25.632;2024-01-30T03:00:04;101363.22;;;2.36;100.00
23417;BME280;11881;42.432;25.632;2024-01-30T03:02:31;101353.84;;;2.26;100.00
23417;BME280;11881;42.432;25.632;2024-01-30T03:04:57;101378.09;;;2.37;100.00
23417;BME280;11881;42.432;25.632;2024-01-30T03:07:22;101372.69;;;2.45;100.00
23417;BME280;11881;42.432;25.632;2024-01-30T03:09:48;101367.72;;;2.33;100.00
23417;BME280;11881;42.432;25.632;2024-01-30T03:12:13;101385.13;;;2.38;100.00
23417;BME280;11881;42.432;25.632;2024-01-30T03:14:39;101376.94;;;2.51;100.00
23417;BME280;11881;42.432;25.632;2024-01-30T03:17:04;101369.06;;;2.51;99.66
23417;BME280;11881;42.432;25.632;2024-01-30T03:19:30;101372.34;;;2.59;99.25
23417;BME280;11881;42.432;25.632;2024-01-30T03:21:55;101364.25;;;2.66;98.90
23417;BME280;11881;42.432;25.632;2024-01-30T03:24:21;101355.19;;;2.43;99.58
23417;BME280;11881;42.432;25.632;2024-01-30T03:26:46;101362.06;;;2.50;98.64
23417;BME280;11881;42.432;25.632;2024-01-30T03:29:12;101354.13;;;2.51;100.00
23417;BME280;11881;42.432;25.632;2024-01-30T03:31:39;101357.63;;;2.52;98.56
23417;BME280;11881;42.432;25.632;2024-01-30T03:34:04;101354.19;;;2.48;98.85
23417;BME280;11881;42.432;25.632;2024-01-30T03:36:30;101346.47;;;2.40;99.31
23417;BME280;11881;42.432;25.632;2024-01-30T03:38:58;101347.81;;;2.58;99.38
23417;BME280;11881;42.432;25.632;2024-01-30T03:41:23;101356.34;;;2.68;98.14
23417;BME280;11881;42.432;25.632;2024-01-30T03:43:49;101349.28;;;2.70;99.08
23417;BME280;11881;42.432;25.632;2024-01-30T03:46:15;101343.91;;;2.75;98.28
23417;BME280;11881;42.432;25.632;2024-01-30T03:48:40;101340.72;;;2.60;98.24
23417;BME280;11881;42.432;25.632;2024-01-30T03:51:06;101356.81;;;2.50;99.29
23417;BME280;11881;42.432;25.632;2024-01-30T03:53:31;101358.59;;;2.48;100.00
23417;BME280;11881;42.432;25.632;2024-01-30T03:55:57;101365.41;;;2.55;99.94
23417;BME280;11881;42.432;25.632;2024-01-30T03:58:22;101362.38;;;2.72;100.00
23417;BME280;11881;42.432;25.632;2024-01-30T04:00:48;101360.03;;;2.61;100.00
23417;BME280;11881;42.432;25.632;2024-01-30T04:03:17;101368.44;;;2.75;100.00
23417;BME280;11881;42.432;25.632;2024-01-30T04:05:43;101360.81;;;2.64;100.00
23417;BME280;11881;42.432;25.632;2024-01-30T04:08:09;101364.44;;;2.59;100.00
23417;BME280;11881;42.432;25.632;2024-01-30T04:10:34;101363.63;;;2.57;100.00
23417;BME280;11881;42.432;25.632;2024-01-30T04:13:00;101376.78;;;2.57;100.00
23417;BME280;11881;42.432;25.632;2024-01-30T04:15:26;101361.97;;;2.53;100.00
23417;BME280;11881;42.432;25.632;2024-01-30T04:17:52;101366.28;;;2.57;100.00
23417;BME280;11881;42.432;25.632;2024-01-30T04:20:17;101366.22;;;2.58;100.00
23417;BME280;11881;42.432;25.632;2024-01-30T04:22:43;101372.94;;;2.34;100.00
23417;BME280;11881;42.432;25.632;2024-01-30T04:25:10;101362.28;;;2.40;100.00
23417;BME280;11881;42.432;25.632;2024-01-30T04:27:35;101379.09;;;2.33;100.00
23417;BME280;11881;42.432;25.632;2024-01-30T04:30:01;101375.47;;;2.37;100.00
23417;BME280;11881;42.432;25.632;2024-01-30T04:32:26;101378.00;;;2.44;100.00
23417;BME280;11881;42.432;25.632;2024-01-30T04:34:51;101376.22;;;2.44;100.00
23417;BME280;11881;42.432;25.632;2024-01-30T04:37:17;101369.22;;;2.43;100.00
23417;BME280;11881;42.432;25.632;2024-01-30T04:39:42;101380.91;;;2.30;100.00
23417;BME280;11881;42.432;25.632;2024-01-30T04:42:08;101375.47;;;2.39;100.00
23417;BME280;11881;42.432;25.632;2024-01-30T04:44:33;101382.41;;;2.42;100.00
23417;BME280;11881;42.432;25.632;2024-01-30T04:46:59;101369.06;;;2.51;100.00
23417;BME280;11881;42.432;25.632;2024-01-30T04:49:27;101380.72;;;2.39;100.00
23417;BME280;11881;42.432;25.632;2024-01-30T04:51:52;101383.84;;;2.55;100.00
23417;BME280;11881;42.432;25.632;2024-01-30T04:54:18;101383.97;;;2.50;100.00
23417;BME280;11881;42.432;25.632;2024-01-30T04:56:43;101391.00;;;2.48;100.00
23417;BME280;11881;42.432;25.632;2024-01-30T04:59:09;101385.88;;;2.44;100.00
23417;BME280;11881;42.432;25.632;2024-01-30T05:01:34;101379.53;;;2.52;100.00
23417;BME280;11881;42.432;25.632;2024-01-30T05:04:00;101391.06;;;2.47;100.00
23417;BME280;11881;42.432;25.632;2024-01-30T05:06:26;101392.63;;;2.54;100.00
23417;BME280;11881;42.432;25.632;2024-01-30T05:08:52;101389.94;;;2.57;100.00
23417;BME280;11881;42.432;25.632;2024-01-30T05:11:18;101394.50;;;2.50;100.00
23417;BME280;11881;42.432;25.632;2024-01-30T05:13:44;101388.94;;;2.62;100.00
23417;BME280;11881;42.432;25.632;2024-01-30T05:16:09;101389.81;;;2.24;100.00
23417;BME280;11881;42.432;25.632;2024-01-30T05:18:35;101394.03;;;2.33;100.00
23417;BME280;11881;42.432;25.632;2024-01-30T05:21:02;101392.16;;;2.38;100.00
23417;BME280;11881;42.432;25.632;2024-01-30T05:23:27;101386.72;;;2.46;100.00
23417;BME280;11881;42.432;25.632;2024-01-30T05:25:53;101394.03;;;2.31;100.00
23417;BME280;11881;42.432;25.632;2024-01-30T05:28:18;101392.25;;;2.33;100.00
23417;BME280;11881;42.432;25.632;2024-01-30T05:30:44;101389.69;;;2.30;100.00
23417;BME280;11881;42.432;25.632;2024-01-30T05:33:09;101400.81;;;2.42;100.00
23417;BME280;11881;42.432;25.632;2024-01-30T05:35:37;101409.56;;;2.42;100.00
23417;BME280;11881;42.432;25.632;2024-01-30T05:38:03;101400.69;;;2.48;100.00
23417;BME280;11881;42.432;25.632;2024-01-30T05:40:29;101399.81;;;2.47;100.00
23417;BME280;11881;42.432;25.632;2024-01-30T05:42:55;101395.16;;;2.21;100.00
23417;BME280;11881;42.432;25.632;2024-01-30T05:45:21;101397.13;;;2.11;100.00
23417;BME280;11881;42.432;25.632;2024-01-30T05:47:48;101389.53;;;2.38;100.00
23417;BME280;11881;42.432;25.632;2024-01-30T05:50:14;101395.66;;;2.38;100.00
23417;BME280;11881;42.432;25.632;2024-01-30T05:52:39;101395.03;;;2.26;100.00
23417;BME280;11881;42.432;25.632;2024-01-30T05:55:05;101389.09;;;2.55;100.00
23417;BME280;11881;42.432;25.632;2024-01-30T05:57:31;101409.47;;;2.47;100.00
23417;BME280;11881;42.432;25.632;2024-01-30T05:59:56;101387.63;;;2.43;100.00
23417;BME280;11881;42.432;25.632;2024-01-30T06:02:22;101393.16;;;2.31;100.00
23417;BME280;11881;42.432;25.632;2024-01-30T06:04:47;101381.06;;;2.24;100.00
23417;BME280;11881;42.432;25.632;2024-01-30T06:07:13;101385.41;;;2.25;100.00
23417;BME280;11881;42.432;25.632;2024-01-30T06:09:38;101377.63;;;2.22;100.00
23417;BME280;11881;42.432;25.632;2024-01-30T06:12:05;101371.81;;;2.06;100.00
23417;BME280;11881;42.432;25.632;2024-01-30T06:14:30;101372.63;;;2.09;100.00
23417;BME280;11881;42.432;25.632;2024-01-30T06:16:56;101373.44;;;2.11;100.00
23417;BME280;11881;42.432;25.632;2024-01-30T06:19:21;101369.88;;;2.16;100.00
23417;BME280;11881;42.432;25.632;2024-01-30T06:21:47;101369.00;;;2.15;100.00
23417;BME280;11881;42.432;25.632;2024-01-30T06:24:12;101358.44;;;2.17;100.00
23417;BME280;11881;42.432;25.632;2024-01-30T06:26:38;101363.75;;;2.13;100.00
23417;BME280;11881;42.432;25.632;2024-01-30T06:29:03;101354.09;;;2.14;100.00
23417;BME280;11881;42.432;25.632;2024-01-30T06:31:29;101350.44;;;2.21;100.00
23417;BME280;11881;42.432;25.632;2024-01-30T06:33:54;101371.72;;;2.10;100.00
23417;BME280;11881;42.432;25.632;2024-01-30T06:36:20;101364.38;;;2.26;100.00
23417;BME280;11881;42.432;25.632;2024-01-30T06:38:45;101366.03;;;2.29;100.00
23417;BME280;11881;42.432;25.632;2024-01-30T06:41:11;101359.09;;;2.26;100.00
23417;BME280;11881;42.432;25.632;2024-01-30T06:43:36;101361.66;;;2.29;100.00
23417;BME280;11881;42.432;25.632;2024-01-30T06:46:02;101363.88;;;2.46;100.00
23417;BME280;11881;42.432;25.632;2024-01-30T06:48:27;101360.03;;;2.61;100.00
23417;BME280;11881;42.432;25.632;2024-01-30T06:50:53;101367.47;;;2.44;100.00
23417;BME280;11881;42.432;25.632;2024-01-30T06:53:19;101374.06;;;2.61;99.54
23417;BME280;11881;42.432;25.632;2024-01-30T06:55:45;101368.97;;;2.54;99.01
23417;BME280;11881;42.432;25.632;2024-01-30T06:58:11;101373.06;;;2.65;97.97
23417;BME280;11881;42.432;25.632;2024-01-30T07:00:37;101379.88;;;2.74;98.23
23417;BME280;11881;42.432;25.632;2024-01-30T07:03:02;101381.94;;;2.61;97.17
23417;BME280;11881;42.432;25.632;2024-01-30T07:05:28;101382.56;;;2.71;97.57
23417;BME280;11881;42.432;25.632;2024-01-30T07:07:53;101376.56;;;2.66;97.47
23417;BME280;11881;42.432;25.632;2024-01-30T07:10:19;101385.47;;;2.60;98.74
23417;BME280;11881;42.432;25.632;2024-01-30T07:12:44;101385.25;;;2.70;98.45
23417;BME280;11881;42.432;25.632;2024-01-30T07:15:10;101398.38;;;2.71;98.53
23417;BME280;11881;42.432;25.632;2024-01-30T07:17:36;101394.56;;;2.84;96.96
23417;BME280;11881;42.432;25.632;2024-01-30T07:20:02;101392.78;;;2.85;96.97
23417;BME280;11881;42.432;25.632;2024-01-30T07:22:30;101385.91;;;2.78;96.85
23417;BME280;11881;42.432;25.632;2024-01-30T07:24:56;101393.00;;;2.76;97.07
23417;BME280;11881;42.432;25.632;2024-01-30T07:27:22;101384.25;;;2.75;96.22
23417;BME280;11881;42.432;25.632;2024-01-30T07:29:47;101384.25;;;2.75;96.35
23417;BME280;11881;42.432;25.632;2024-01-30T07:32:13;101379.84;;;2.76;94.38
23417;BME280;11881;42.432;25.632;2024-01-30T07:34:40;101385.47;;;2.96;94.59
23417;BME280;11881;42.432;25.632;2024-01-30T07:37:05;101386.59;;;2.86;93.70
23417;BME280;11881;42.432;25.632;2024-01-30T07:39:33;101385.91;;;2.78;92.96
23417;BME280;11881;42.432;25.632;2024-01-30T07:41:59;101386.88;;;2.75;93.77
23417;BME280;11881;42.432;25.632;2024-01-30T07:44:24;101397.09;;;2.87;93.37
23417;BME280;11881;42.432;25.632;2024-01-30T07:46:50;101378.88;;;2.80;93.09
23417;BME280;11881;42.432;25.632;2024-01-30T07:49:15;101394.16;;;3.00;92.79
23417;BME280;11881;42.432;25.632;2024-01-30T07:51:41;101391.25;;;3.10;92.93
23417;BME280;11881;42.432;25.632;2024-01-30T07:54:06;101385.38;;;2.99;93.24
23417;BME280;11881;42.432;25.632;2024-01-30T07:56:32;101383.63;;;3.00;91.68
23417;BME280;11881;42.432;25.632;2024-01-30T07:58:57;101371.03;;;3.11;89.33
23417;BME280;11881;42.432;25.632;2024-01-30T08:01:23;101381.91;;;2.99;89.66
23417;BME280;11881;42.432;25.632;2024-01-30T08:03:48;101386.03;;;3.09;90.45
23417;BME280;11881;42.432;25.632;2024-01-30T08:06:13;101395.72;;;3.07;89.57
23417;BME280;11881;42.432;25.632;2024-01-30T08:08:39;101405.59;;;2.99;89.36
23417;BME280;11881;42.432;25.632;2024-01-30T08:11:05;101404.69;;;3.00;87.80
23417;BME280;11881;42.432;25.632;2024-01-30T08:13:30;101401.84;;;3.09;88.28
23417;BME280;11881;42.432;25.632;2024-01-30T08:15:56;101407.38;;;3.32;87.52
23417;BME280;11881;42.432;25.632;2024-01-30T08:18:21;101406.69;;;3.57;86.48
23417;BME280;11881;42.432;25.632;2024-01-30T08:20:47;101414.00;;;3.78;84.02
23417;BME280;11881;42.432;25.632;2024-01-30T08:23:13;101410.50;;;3.78;81.91
23417;BME280;11881;42.432;25.632;2024-01-30T08:25:38;101405.19;;;3.79;82.29
23417;BME280;11881;42.432;25.632;2024-01-30T08:28:04;101417.34;;;3.85;82.86
23417;BME280;11881;42.432;25.632;2024-01-30T08:30:29;101417.09;;;3.92;80.73
23417;BME280;11881;42.432;25.632;2024-01-30T08:32:55;101421.13;;;3.74;82.23
23417;BME280;11881;42.432;25.632;2024-01-30T08:35:20;101419.06;;;3.55;83.30
23417;BME280;11881;42.432;25.632;2024-01-30T08:37:46;101424.19;;;3.59;83.97
23417;BME280;11881;42.432;25.632;2024-01-30T08:40:11;101436.13;;;3.40;83.88
23417;BME280;11881;42.432;25.632;2024-01-30T08:42:37;101441.50;;;3.37;84.55
23417;BME280;11881;42.432;25.632;2024-01-30T08:45:03;101437.22;;;3.33;83.38
23417;BME280;11881;42.432;25.632;2024-01-30T08:47:30;101435.44;;;3.33;83.16
23417;BME280;11881;42.432;25.632;2024-01-30T08:49:55;101438.44;;;3.19;84.00
23417;BME280;11881;42.432;25.632;2024-01-30T08:52:21;101435.81;;;3.19;84.53
23417;BME280;11881;42.432;25.632;2024-01-30T08:54:46;101446.03;;;3.32;85.86
23417;BME280;11881;42.432;25.632;2024-01-30T08:57:12;101446.41;;;3.51;84.97
23417;BME280;11881;42.432;25.632;2024-01-30T08:59:37;101449.16;;;3.46;83.79
23417;BME280;11881;42.432;25.632;2024-01-30T09:02:03;101450.91;;;3.45;84.60
23417;BME280;11881;42.432;25.632;2024-01-30T09:04:29;101461.94;;;3.27;84.26
23417;BME280;11881;42.432;25.632;2024-01-30T09:06:55;101461.72;;;3.36;84.83
23417;BME280;11881;42.432;25.632;2024-01-30T09:09:20;101472.16;;;3.39;84.99
23417;BME280;11881;42.432;25.632;2024-01-30T09:11:46;101460.38;;;3.54;85.36
23417;BME280;11881;42.432;25.632;2024-01-30T09:14:11;101461.72;;;3.69;83.34
23417;BME280;11881;42.432;25.632;2024-01-30T09:16:37;101454.06;;;3.60;84.16
23417;BME280;11881;42.432;25.632;2024-01-30T09:19:02;101450.00;;;3.46;83.59
23417;BME280;11881;42.432;25.632;2024-01-30T09:21:28;101453.34;;;3.53;83.78
23417;BME280;11881;42.432;25.632;2024-01-30T09:24:02;101447.22;;;3.53;84.07
23417;BME280;11881;42.432;25.632;2024-01-30T09:26:30;101438.00;;;3.69;84.95
23417;BME280;11881;42.432;25.632;2024-01-30T09:28:56;101445.31;;;3.58;84.41
23417;BME280;11881;42.432;25.632;2024-01-30T09:31:21;101437.47;;;3.56;84.52
23417;BME280;11881;42.432;25.632;2024-01-30T09:33:47;101431.06;;;3.65;83.69
23417;BME280;11881;42.432;25.632;2024-01-30T09:36:14;101413.97;;;3.80;85.13
23417;BME280;11881;42.432;25.632;2024-01-30T09:38:41;101402.63;;;3.76;85.37
23417;BME280;11881;42.432;25.632;2024-01-30T09:41:09;101396.78;;;3.65;86.41
23417;BME280;11881;42.432;25.632;2024-01-30T09:43:38;101391.91;;;3.51;85.20
23417;BME280;11881;42.432;25.632;2024-01-30T09:46:05;101379.81;;;3.44;85.41
23417;BME280;11881;42.432;25.632;2024-01-30T09:48:33;101388.22;;;3.26;86.47
23417;BME280;11881;42.432;25.632;2024-01-30T09:50:59;101380.56;;;3.16;87.73
23417;BME280;11881;42.432;25.632;2024-01-30T09:53:25;101377.75;;;2.90;87.70
23417;BME280;11881;42.432;25.632;2024-01-30T09:55:51;101383.63;;;2.64;89.73
23417;BME280;11881;42.432;25.632;2024-01-30T09:58:16;101377.69;;;2.56;93.75
23417;BME280;11881;42.432;25.632;2024-01-30T10:00:42;101374.31;;;2.51;95.48
23417;BME280;11881;42.432;25.632;2024-01-30T10:03:08;101357.69;;;2.49;95.01
23417;BME280;11881;42.432;25.632;2024-01-30T10:05:35;101353.66;;;2.70;94.90
23417;BME280;11881;42.432;25.632;2024-01-30T10:08:05;101347.66;;;2.64;94.97
23417;BME280;11881;42.432;25.632;2024-01-30T10:10:31;101348.34;;;2.73;94.92
23417;BME280;11881;42.432;25.632;2024-01-30T10:12:57;101358.66;;;2.80;94.42
23417;BME280;11881;42.432;25.632;2024-01-30T10:15:22;101361.84;;;2.93;93.27
23417;BME280;11881;42.432;25.632;2024-01-30T10:17:49;101352.53;;;3.14;90.77
23417;BME280;11881;42.432;25.632;2024-01-30T10:20:14;101359.38;;;3.21;92.10
23417;BME280;11881;42.432;25.632;2024-01-30T10:22:40;101352.38;;;2.86;92.05
23417;BME280;11881;42.432;25.632;2024-01-30T10:25:09;101344.16;;;2.98;93.73
23417;BME280;11881;42.432;25.632;2024-01-30T10:27:35;101351.28;;;2.94;93.38
23417;BME280;11881;42.432;25.632;2024-01-30T10:30:02;101353.13;;;2.91;93.39
23417;BME280;11881;42.432;25.632;2024-01-30T10:32:29;101352.72;;;3.06;92.45
23417;BME280;11881;42.432;25.632;2024-01-30T10:34:54;101345.78;;;3.04;92.68
23417;BME280;11881;42.432;25.632;2024-01-30T10:37:21;101364.41;;;3.29;90.87
23417;BME280;11881;42.432;25.632;2024-01-30T10:39:52;101356.63;;;3.24;90.68
23417;BME280;11881;42.432;25.632;2024-01-30T10:42:18;101359.81;;;3.68;89.30
23417;BME280;11881;42.432;25.632;2024-01-30T10:44:56;101369.00;;;3.55;88.39
23417;BME280;11881;42.432;25.632;2024-01-30T10:47:29;101357.19;;;3.68;87.64
23417;BME280;11881;42.432;25.632;2024-01-30T10:49:55;101369.94;;;3.83;87.37
23417;BME280;11881;42.432;25.632;2024-01-30T10:52:23;101365.41;;;3.87;86.54
23417;BME280;11881;42.432;25.632;2024-01-30T10:54:51;101357.13;;;3.99;85.93
23417;BME280;11881;42.432;25.632;2024-01-30T10:57:18;101370.81;;;3.82;86.00
23417;BME280;11881;42.432;25.632;2024-01-30T10:59:44;101378.66;;;3.85;86.11
23417;BME280;11881;42.432;25.632;2024-01-30T11:02:11;101379.34;;;3.61;87.52
23417;BME280;11881;42.432;25.632;2024-01-30T11:04:37;101395.28;;;3.87;85.82
23417;BME280;11881;42.432;25.632;2024-01-30T11:07:14;101391.94;;;4.12;84.82
23417;BME280;11881;42.432;25.632;2024-01-30T11:09:40;101386.25;;;4.53;83.15
23417;BME280;11881;42.432;25.632;2024-01-30T11:12:12;101394.38;;;4.74;80.80
23417;BME280;11881;42.432;25.632;2024-01-30T11:14:38;101393.94;;;4.88;81.74
23417;BME280;11881;42.432;25.632;2024-01-30T11:17:05;101392.31;;;5.35;79.12
23417;BME280;11881;42.432;25.632;2024-01-30T11:19:31;101396.41;;;5.69;77.26
23417;BME280;11881;42.432;25.632;2024-01-30T11:21:57;101396.63;;;5.63;77.49
23417;BME280;11881;42.432;25.632;2024-01-30T11:24:23;101385.97;;;5.39;77.89
23417;BME280;11881;42.432;25.632;2024-01-30T11:26:55;101387.22;;;5.54;76.79
23417;BME280;11881;42.432;25.632;2024-01-30T11:29:24;101380.63;;;5.66;76.88
23417;BME280;11881;42.432;25.632;2024-01-30T11:31:57;101393.91;;;5.64;75.42
23417;BME280;11881;42.432;25.632;2024-01-30T11:34:23;101381.78;;;5.58;76.42
23417;BME280;11881;42.432;25.632;2024-01-30T11:36:59;101381.88;;;5.55;76.17
23417;BME280;11881;42.432;25.632;2024-01-30T11:39:26;101379.25;;;5.79;74.84
23417;BME280;11881;42.432;25.632;2024-01-30T11:41:52;101365.97;;;5.32;76.26
23417;BME280;11881;42.432;25.632;2024-01-30T11:44:22;101367.03;;;5.28;75.48
23417;BME280;11881;42.432;25.632;2024-01-30T11:46:52;101359.69;;;5.36;75.68
23417;BME280;11881;42.432;25.632;2024-01-30T11:49:18;101357.16;;;5.56;75.06
23417;BME280;11881;42.432;25.632;2024-01-30T11:51:47;101352.19;;;5.72;74.85
23417;BME280;11881;42.432;25.632;2024-01-30T11:54:16;101351.63;;;5.14;75.03
23417;BME280;11881;42.432;25.632;2024-01-30T11:56:42;101354.13;;;4.92;76.71
23417;BME280;11881;42.432;25.632;2024-01-30T11:59:08;101347.63;;;5.02;76.05
23417;BME280;11881;42.432;25.632;2024-01-30T12:01:34;101342.25;;;5.05;76.21
23417;BME280;11881;42.432;25.632;2024-01-30T12:04:00;101340.28;;;4.86;77.33
23417;BME280;11881;42.432;25.632;2024-01-30T12:06:25;101347.34;;;4.85;77.68
23417;BME280;11881;42.432;25.632;2024-01-30T12:08:58;101341.22;;;4.58;78.79
23417;BME280;11881;42.432;25.632;2024-01-30T12:11:24;101337.69;;;4.84;79.06
23417;BME280;11881;42.432;25.632;2024-01-30T12:13:52;101339.91;;;5.23;76.49
23417;BME280;11881;42.432;25.632;2024-01-30T12:16:18;101338.31;;;5.17;77.03
23417;BME280;11881;42.432;25.632;2024-01-30T12:18:44;101326.41;;;5.30;76.02
23417;BME280;11881;42.432;25.632;2024-01-30T12:21:09;101336.41;;;4.71;76.67
23417;BME280;11881;42.432;25.632;2024-01-30T12:23:35;101323.91;;;4.76;77.26
23417;BME280;11881;42.432;25.632;2024-01-30T12:26:01;101325.56;;;4.78;77.30
23417;BME280;11881;42.432;25.632;2024-01-30T12:28:29;101330.75;;;4.55;77.43
23417;BME280;11881;42.432;25.632;2024-01-30T12:31:03;101318.78;;;4.96;76.10
23417;BME280;11881;42.432;25.632;2024-01-30T12:33:30;101307.94;;;4.79;76.71
23417;BME280;11881;42.432;25.632;2024-01-30T12:35:56;101317.94;;;4.69;76.15
23417;BME280;11881;42.432;25.632;2024-01-30T12:38:24;101305.22;;;4.56;76.36
23417;BME280;11881;42.432;25.632;2024-01-30T12:40:54;101303.25;;;4.36;77.32
23417;BME280;11881;42.432;25.632;2024-01-30T12:43:20;101305.81;;;4.37;76.86